sensor_id;sensor_type;location;lat;lon;timestamp;P1;durP1;ratioP1;P2;durP2;ratioP2
23228;SDS011;11783;50.350;6.576;2022-11-11T00:00:04;17.52;;;9.90;;
23228;SDS011;11783;50.350;6.576;2022-11-11T00:02:31;18.08;;;9.68;;
23228;SDS011;11783;50.350;6.576;2022-11-11T00:04:56;17.98;;;9.82;;
23228;SDS011;11783;50.350;6.576;2022-11-11T00:07:22;20.80;;;10.35;;
23228;SDS011;11783;50.350;6.576;2022-11-11T00:09:47;24.95;;;12.27;;
23228;SDS011;11783;50.350;6.576;2022-11-11T00:12:12;21.90;;;11.60;;
23228;SDS011;11783;50.350;6.576;2022-11-11T00:14:38;21.52;;;11.27;;
23228;SDS011;11783;50.350;6.576;2022-11-11T00:17:03;21.92;;;11.23;;
23228;SDS011;11783;50.350;6.576;2022-11-11T00:19:47;21.20;;;11.98;;
23228;SDS011;11783;50.350;6.576;2022-11-11T00:22:31;21.17;;;10.80;;
23228;SDS011;11783;50.350;6.576;2022-11-11T00:25:15;23.38;;;11.93;;
23228;SDS011;11783;50.350;6.576;2022-11-11T00:27:42;23.75;;;11.60;;
23228;SDS011;11783;50.350;6.576;2022-11-11T00:30:07;25.92;;;11.25;;
23228;SDS011;11783;50.350;6.576;2022-11-11T00:32:33;19.33;;;10.75;;
23228;SDS011;11783;50.350;6.576;2022-11-11T00:34:58;20.17;;;11.60;;
23228;SDS011;11783;50.350;6.576;2022-11-11T00:37:44;21.23;;;11.30;;
23228;SDS011;11783;50.350;6.576;2022-11-11T00:40:11;20.42;;;11.07;;
23228;SDS011;11783;50.350;6.576;2022-11-11T00:42:37;22.23;;;11.63;;
23228;SDS011;11783;50.350;6.576;2022-11-11T00:45:03;20.48;;;10.90;;
23228;SDS011;11783;50.350;6.576;2022-11-11T00:47:29;19.67;;;10.75;;
23228;SDS011;11783;50.350;6.576;2022-11-11T00:50:14;20.08;;;10.98;;
23228;SDS011;11783;50.350;6.576;2022-11-11T00:53:12;20.75;;;11.07;;
23228;SDS011;11783;50.350;6.576;2022-11-11T00:55:39;19.20;;;10.10;;
23228;SDS011;11783;50.350;6.576;2022-11-11T00:58:04;20.15;;;10.90;;
23228;SDS011;11783;50.350;6.576;2022-11-11T01:00:30;20.17;;;10.15;;
23228;SDS011;11783;50.350;6.576;2022-11-11T01:02:56;17.98;;;9.85;;
23228;SDS011;11783;50.350;6.576;2022-11-11T01:05:22;18.50;;;9.70;;
23228;SDS011;11783;50.350;6.576;2022-11-11T01:07:50;16.77;;;9.10;;
23228;SDS011;11783;50.350;6.576;2022-11-11T01:10:16;17.48;;;9.05;;
23228;SDS011;11783;50.350;6.576;2022-11-11T01:13:02;17.13;;;8.90;;
23228;SDS011;11783;50.350;6.576;2022-11-11T01:15:42;16.65;;;9.30;;
23228;SDS011;11783;50.350;6.576;2022-11-11T01:18:10;17.15;;;8.93;;
23228;SDS011;11783;50.350;6.576;2022-11-11T01:20:38;15.45;;;8.80;;
23228;SDS011;11783;50.350;6.576;2022-11-11T01:23:04;13.95;;;8.43;;
23228;SDS011;11783;50.350;6.576;2022-11-11T01:25:35;17.83;;;9.25;;
23228;SDS011;11783;50.350;6.576;2022-11-11T01:28:02;16.48;;;9.07;;
23228;SDS011;11783;50.350;6.576;2022-11-11T01:30:27;15.27;;;8.40;;
23228;SDS011;11783;50.350;6.576;2022-11-11T01:32:54;15.10;;;9.00;;
23228;SDS011;11783;50.350;6.576;2022-11-11T01:35:20;16.23;;;8.73;;
23228;SDS011;11783;50.350;6.576;2022-11-11T01:37:45;19.08;;;9.38;;
23228;SDS011;11783;50.350;6.576;2022-11-11T01:40:10;17.77;;;9.32;;
23228;SDS011;11783;50.350;6.576;2022-11-11T01:42:49;16.80;;;8.60;;
23228;SDS011;11783;50.350;6.576;2022-11-11T01:45:46;21.23;;;9.98;;
23228;SDS011;11783;50.350;6.576;2022-11-11T01:51:18;20.05;;;9.60;;
23228;SDS011;11783;50.350;6.576;2022-11-11T01:54:06;24.02;;;10.43;;
23228;SDS011;11783;50.350;6.576;2022-11-11T01:56:34;19.10;;;10.35;;
23228;SDS011;11783;50.350;6.576;2022-11-11T01:59:01;20.88;;;11.23;;
23228;SDS011;11783;50.350;6.576;2022-11-11T02:01:30;22.77;;;11.52;;
23228;SDS011;11783;50.350;6.576;2022-11-11T02:03:57;21.58;;;10.00;;
23228;SDS011;11783;50.350;6.576;2022-11-11T02:06:44;21.33;;;11.40;;
23228;SDS011;11783;50.350;6.576;2022-11-11T02:09:11;24.95;;;11.48;;
23228;SDS011;11783;50.350;6.576;2022-11-11T02:11:36;22.27;;;11.18;;
23228;SDS011;11783;50.350;6.576;2022-11-11T02:14:23;24.42;;;10.98;;
23228;SDS011;11783;50.350;6.576;2022-11-11T02:17:05;22.13;;;10.95;;
23228;SDS011;11783;50.350;6.576;2022-11-11T02:19:47;24.67;;;11.75;;
23228;SDS011;11783;50.350;6.576;2022-11-11T02:22:17;20.73;;;10.95;;
23228;SDS011;11783;50.350;6.576;2022-11-11T02:24:49;22.80;;;10.98;;
23228;SDS011;11783;50.350;6.576;2022-11-11T02:27:16;20.30;;;10.93;;
23228;SDS011;11783;50.350;6.576;2022-11-11T02:29:43;20.70;;;10.52;;
23228;SDS011;11783;50.350;6.576;2022-11-11T02:32:13;21.55;;;10.35;;
23228;SDS011;11783;50.350;6.576;2022-11-11T02:34:38;22.60;;;10.13;;
23228;SDS011;11783;50.350;6.576;2022-11-11T02:37:04;18.85;;;9.57;;
23228;SDS011;11783;50.350;6.576;2022-11-11T02:39:32;21.58;;;10.70;;
23228;SDS011;11783;50.350;6.576;2022-11-11T02:42:01;19.85;;;10.10;;
23228;SDS011;11783;50.350;6.576;2022-11-11T02:44:34;18.48;;;9.68;;
23228;SDS011;11783;50.350;6.576;2022-11-11T02:46:59;19.38;;;10.85;;
23228;SDS011;11783;50.350;6.576;2022-11-11T02:49:25;20.55;;;9.85;;
23228;SDS011;11783;50.350;6.576;2022-11-11T02:51:50;22.90;;;11.07;;
23228;SDS011;11783;50.350;6.576;2022-11-11T02:54:15;18.45;;;8.95;;
23228;SDS011;11783;50.350;6.576;2022-11-11T02:56:41;17.40;;;9.63;;
23228;SDS011;11783;50.350;6.576;2022-11-11T02:59:25;19.50;;;8.98;;
23228;SDS011;11783;50.350;6.576;2022-11-11T03:01:50;18.17;;;9.85;;
23228;SDS011;11783;50.350;6.576;2022-11-11T03:04:15;21.67;;;10.40;;
23228;SDS011;11783;50.350;6.576;2022-11-11T03:06:40;18.63;;;9.93;;
23228;SDS011;11783;50.350;6.576;2022-11-11T03:09:06;20.42;;;11.32;;
23228;SDS011;11783;50.350;6.576;2022-11-11T03:11:31;18.27;;;10.43;;
23228;SDS011;11783;50.350;6.576;2022-11-11T03:13:58;20.17;;;11.02;;
23228;SDS011;11783;50.350;6.576;2022-11-11T03:16:24;16.52;;;9.50;;
23228;SDS011;11783;50.350;6.576;2022-11-11T03:19:09;20.10;;;9.82;;
23228;SDS011;11783;50.350;6.576;2022-11-11T03:21:34;17.90;;;8.80;;
23228;SDS011;11783;50.350;6.576;2022-11-11T03:23:59;17.75;;;8.93;;
23228;SDS011;11783;50.350;6.576;2022-11-11T03:26:25;12.95;;;7.60;;
23228;SDS011;11783;50.350;6.576;2022-11-11T03:28:50;20.65;;;8.65;;
23228;SDS011;11783;50.350;6.576;2022-11-11T03:31:16;16.75;;;8.48;;
23228;SDS011;11783;50.350;6.576;2022-11-11T03:33:41;14.18;;;7.88;;
23228;SDS011;11783;50.350;6.576;2022-11-11T03:36:07;14.13;;;8.07;;
23228;SDS011;11783;50.350;6.576;2022-11-11T03:38:32;18.88;;;9.32;;
23228;SDS011;11783;50.350;6.576;2022-11-11T03:40:57;14.10;;;7.90;;
23228;SDS011;11783;50.350;6.576;2022-11-11T03:43:24;19.48;;;8.35;;
23228;SDS011;11783;50.350;6.576;2022-11-11T03:45:52;14.15;;;8.07;;
23228;SDS011;11783;50.350;6.576;2022-11-11T03:48:19;12.00;;;7.38;;
23228;SDS011;11783;50.350;6.576;2022-11-11T03:50:45;15.57;;;8.25;;
23228;SDS011;11783;50.350;6.576;2022-11-11T03:53:12;13.52;;;7.80;;
23228;SDS011;11783;50.350;6.576;2022-11-11T03:55:38;15.93;;;7.90;;
23228;SDS011;11783;50.350;6.576;2022-11-11T03:58:04;15.55;;;7.88;;
23228;SDS011;11783;50.350;6.576;2022-11-11T04:00:29;12.50;;;7.82;;
23228;SDS011;11783;50.350;6.576;2022-11-11T04:03:02;14.68;;;7.13;;
23228;SDS011;11783;50.350;6.576;2022-11-11T04:05:52;12.95;;;7.07;;
23228;SDS011;11783;50.350;6.576;2022-11-11T04:08:36;15.07;;;7.30;;
23228;SDS011;11783;50.350;6.576;2022-11-11T04:11:24;14.18;;;7.90;;
23228;SDS011;11783;50.350;6.576;2022-11-11T04:13:50;16.38;;;8.90;;
23228;SDS011;11783;50.350;6.576;2022-11-11T04:16:36;17.13;;;9.20;;
23228;SDS011;11783;50.350;6.576;2022-11-11T04:19:01;19.42;;;9.43;;
23228;SDS011;11783;50.350;6.576;2022-11-11T04:21:45;16.90;;;8.52;;
23228;SDS011;11783;50.350;6.576;2022-11-11T04:24:11;20.67;;;9.07;;
23228;SDS011;11783;50.350;6.576;2022-11-11T04:26:58;18.75;;;9.00;;
23228;SDS011;11783;50.350;6.576;2022-11-11T04:29:24;18.65;;;9.20;;
23228;SDS011;11783;50.350;6.576;2022-11-11T04:32:03;16.15;;;8.68;;
23228;SDS011;11783;50.350;6.576;2022-11-11T04:34:48;16.98;;;9.02;;
23228;SDS011;11783;50.350;6.576;2022-11-11T04:37:17;21.23;;;9.60;;
23228;SDS011;11783;50.350;6.576;2022-11-11T04:39:42;20.90;;;10.05;;
23228;SDS011;11783;50.350;6.576;2022-11-11T04:42:26;27.05;;;11.75;;
23228;SDS011;11783;50.350;6.576;2022-11-11T04:44:53;21.05;;;11.25;;
23228;SDS011;11783;50.350;6.576;2022-11-11T04:47:37;24.98;;;12.48;;
23228;SDS011;11783;50.350;6.576;2022-11-11T04:50:03;18.45;;;9.75;;
23228;SDS011;11783;50.350;6.576;2022-11-11T04:52:29;23.67;;;11.20;;
23228;SDS011;11783;50.350;6.576;2022-11-11T04:54:55;26.23;;;12.80;;
23228;SDS011;11783;50.350;6.576;2022-11-11T04:57:44;25.75;;;12.25;;
23228;SDS011;11783;50.350;6.576;2022-11-11T05:00:11;29.27;;;13.93;;
23228;SDS011;11783;50.350;6.576;2022-11-11T05:02:38;32.10;;;14.32;;
23228;SDS011;11783;50.350;6.576;2022-11-11T05:05:23;27.70;;;12.95;;
23228;SDS011;11783;50.350;6.576;2022-11-11T05:07:49;26.55;;;13.02;;
23228;SDS011;11783;50.350;6.576;2022-11-11T05:10:34;29.02;;;13.73;;
23228;SDS011;11783;50.350;6.576;2022-11-11T05:12:59;30.83;;;14.52;;
23228;SDS011;11783;50.350;6.576;2022-11-11T05:15:43;27.98;;;14.40;;
23228;SDS011;11783;50.350;6.576;2022-11-11T05:18:28;29.90;;;14.48;;
23228;SDS011;11783;50.350;6.576;2022-11-11T05:21:12;29.92;;;14.18;;
23228;SDS011;11783;50.350;6.576;2022-11-11T05:23:44;30.08;;;14.30;;
23228;SDS011;11783;50.350;6.576;2022-11-11T05:26:28;30.02;;;13.90;;
23228;SDS011;11783;50.350;6.576;2022-11-11T05:28:53;29.67;;;13.32;;
23228;SDS011;11783;50.350;6.576;2022-11-11T05:31:18;32.08;;;13.73;;
23228;SDS011;11783;50.350;6.576;2022-11-11T05:33:44;29.98;;;13.98;;
23228;SDS011;11783;50.350;6.576;2022-11-11T05:36:09;30.45;;;14.00;;
23228;SDS011;11783;50.350;6.576;2022-11-11T05:38:34;29.85;;;14.13;;
23228;SDS011;11783;50.350;6.576;2022-11-11T05:41:00;26.02;;;12.43;;
23228;SDS011;11783;50.350;6.576;2022-11-11T05:43:25;33.17;;;14.40;;
23228;SDS011;11783;50.350;6.576;2022-11-11T05:45:50;26.13;;;13.00;;
23228;SDS011;11783;50.350;6.576;2022-11-11T05:48:15;23.52;;;12.32;;
23228;SDS011;11783;50.350;6.576;2022-11-11T05:50:41;27.45;;;13.23;;
23228;SDS011;11783;50.350;6.576;2022-11-11T05:53:06;26.55;;;12.68;;
23228;SDS011;11783;50.350;6.576;2022-11-11T05:55:32;24.73;;;12.90;;
23228;SDS011;11783;50.350;6.576;2022-11-11T05:57:58;27.58;;;12.98;;
23228;SDS011;11783;50.350;6.576;2022-11-11T06:00:23;26.25;;;13.32;;
23228;SDS011;11783;50.350;6.576;2022-11-11T06:02:48;27.67;;;13.18;;
23228;SDS011;11783;50.350;6.576;2022-11-11T06:05:13;28.27;;;13.32;;
23228;SDS011;11783;50.350;6.576;2022-11-11T06:07:39;30.75;;;14.00;;
23228;SDS011;11783;50.350;6.576;2022-11-11T06:10:04;27.80;;;14.07;;
23228;SDS011;11783;50.350;6.576;2022-11-11T06:12:49;28.73;;;13.75;;
23228;SDS011;11783;50.350;6.576;2022-11-11T06:15:29;33.53;;;13.77;;
23228;SDS011;11783;50.350;6.576;2022-11-11T06:17:58;30.35;;;13.95;;
23228;SDS011;11783;50.350;6.576;2022-11-11T06:20:23;27.70;;;13.13;;
23228;SDS011;11783;50.350;6.576;2022-11-11T06:22:48;24.13;;;11.15;;
23228;SDS011;11783;50.350;6.576;2022-11-11T06:28:04;29.05;;;12.93;;
23228;SDS011;11783;50.350;6.576;2022-11-11T06:30:29;24.77;;;12.23;;
23228;SDS011;11783;50.350;6.576;2022-11-11T06:32:54;26.23;;;11.98;;
23228;SDS011;11783;50.350;6.576;2022-11-11T06:35:19;21.55;;;11.50;;
23228;SDS011;11783;50.350;6.576;2022-11-11T06:37:45;27.65;;;12.02;;
23228;SDS011;11783;50.350;6.576;2022-11-11T06:40:10;23.30;;;10.50;;
23228;SDS011;11783;50.350;6.576;2022-11-11T06:42:36;25.00;;;11.90;;
23228;SDS011;11783;50.350;6.576;2022-11-11T06:45:02;25.00;;;11.00;;
23228;SDS011;11783;50.350;6.576;2022-11-11T06:47:27;22.92;;;10.57;;
23228;SDS011;11783;50.350;6.576;2022-11-11T06:49:52;24.92;;;11.77;;
23228;SDS011;11783;50.350;6.576;2022-11-11T06:52:18;23.27;;;11.32;;
23228;SDS011;11783;50.350;6.576;2022-11-11T06:54:43;23.38;;;11.27;;
23228;SDS011;11783;50.350;6.576;2022-11-11T06:57:08;22.48;;;10.90;;
23228;SDS011;11783;50.350;6.576;2022-11-11T06:59:33;23.85;;;11.20;;
23228;SDS011;11783;50.350;6.576;2022-11-11T07:01:59;21.70;;;10.38;;
23228;SDS011;11783;50.350;6.576;2022-11-11T07:04:24;23.02;;;11.20;;
23228;SDS011;11783;50.350;6.576;2022-11-11T07:06:49;21.42;;;10.98;;
23228;SDS011;11783;50.350;6.576;2022-11-11T07:09:14;22.60;;;11.52;;
23228;SDS011;11783;50.350;6.576;2022-11-11T07:11:40;19.17;;;10.32;;
23228;SDS011;11783;50.350;6.576;2022-11-11T07:14:05;17.88;;;10.05;;
23228;SDS011;11783;50.350;6.576;2022-11-11T07:16:30;16.65;;;9.25;;
23228;SDS011;11783;50.350;6.576;2022-11-11T07:18:56;16.05;;;9.43;;
23228;SDS011;11783;50.350;6.576;2022-11-11T07:21:21;18.35;;;9.45;;
23228;SDS011;11783;50.350;6.576;2022-11-11T07:23:46;16.98;;;9.02;;
23228;SDS011;11783;50.350;6.576;2022-11-11T07:26:11;18.20;;;9.35;;
23228;SDS011;11783;50.350;6.576;2022-11-11T07:28:37;13.27;;;7.78;;
23228;SDS011;11783;50.350;6.576;2022-11-11T07:31:02;14.23;;;8.40;;
23228;SDS011;11783;50.350;6.576;2022-11-11T07:33:27;14.85;;;8.23;;
23228;SDS011;11783;50.350;6.576;2022-11-11T07:35:52;12.93;;;7.78;;
23228;SDS011;11783;50.350;6.576;2022-11-11T07:38:18;13.73;;;7.15;;
23228;SDS011;11783;50.350;6.576;2022-11-11T07:40:43;13.82;;;7.40;;
23228;SDS011;11783;50.350;6.576;2022-11-11T07:43:08;14.05;;;7.82;;
23228;SDS011;11783;50.350;6.576;2022-11-11T07:45:34;11.48;;;6.78;;
23228;SDS011;11783;50.350;6.576;2022-11-11T07:47:59;10.93;;;6.88;;
23228;SDS011;11783;50.350;6.576;2022-11-11T07:50:24;14.18;;;7.93;;
23228;SDS011;11783;50.350;6.576;2022-11-11T07:52:49;15.07;;;7.95;;
23228;SDS011;11783;50.350;6.576;2022-11-11T07:55:15;14.52;;;8.27;;
23228;SDS011;11783;50.350;6.576;2022-11-11T07:57:40;10.60;;;6.90;;
23228;SDS011;11783;50.350;6.576;2022-11-11T08:00:06;12.18;;;6.82;;
23228;SDS011;11783;50.350;6.576;2022-11-11T08:02:31;15.07;;;8.60;;
23228;SDS011;11783;50.350;6.576;2022-11-11T08:07:35;15.07;;;9.02;;
23228;SDS011;11783;50.350;6.576;2022-11-11T08:10:01;17.52;;;8.93;;
23228;SDS011;11783;50.350;6.576;2022-11-11T08:12:42;14.55;;;8.43;;
23228;SDS011;11783;50.350;6.576;2022-11-11T08:15:27;16.33;;;9.07;;
23228;SDS011;11783;50.350;6.576;2022-11-11T08:17:53;17.63;;;9.70;;
23228;SDS011;11783;50.350;6.576;2022-11-11T08:20:18;29.90;;;14.02;;
23228;SDS011;11783;50.350;6.576;2022-11-11T08:22:43;29.75;;;14.27;;
23228;SDS011;11783;50.350;6.576;2022-11-11T08:25:10;37.67;;;16.30;;
23228;SDS011;11783;50.350;6.576;2022-11-11T08:27:38;48.95;;;18.20;;
23228;SDS011;11783;50.350;6.576;2022-11-11T08:30:04;41.13;;;18.10;;
23228;SDS011;11783;50.350;6.576;2022-11-11T08:32:30;38.92;;;16.52;;
23228;SDS011;11783;50.350;6.576;2022-11-11T08:34:56;32.30;;;14.10;;
23228;SDS011;11783;50.350;6.576;2022-11-11T08:37:21;34.60;;;15.27;;
23228;SDS011;11783;50.350;6.576;2022-11-11T08:39:46;38.05;;;16.73;;
23228;SDS011;11783;50.350;6.576;2022-11-11T08:42:12;41.38;;;17.60;;
23228;SDS011;11783;50.350;6.576;2022-11-11T08:44:37;35.83;;;14.80;;
23228;SDS011;11783;50.350;6.576;2022-11-11T08:47:03;39.30;;;15.35;;
23228;SDS011;11783;50.350;6.576;2022-11-11T08:49:28;35.45;;;16.02;;
23228;SDS011;11783;50.350;6.576;2022-11-11T08:51:53;36.53;;;15.27;;
23228;SDS011;11783;50.350;6.576;2022-11-11T08:54:18;37.05;;;15.40;;
23228;SDS011;11783;50.350;6.576;2022-11-11T08:56:44;35.95;;;15.50;;
23228;SDS011;11783;50.350;6.576;2022-11-11T08:59:09;36.97;;;15.60;;
23228;SDS011;11783;50.350;6.576;2022-11-11T09:01:35;32.33;;;15.23;;
23228;SDS011;11783;50.350;6.576;2022-11-11T09:04:00;33.50;;;15.15;;
23228;SDS011;11783;50.350;6.576;2022-11-11T09:06:26;32.10;;;14.25;;
23228;SDS011;11783;50.350;6.576;2022-11-11T09:08:53;25.00;;;12.35;;
23228;SDS011;11783;50.350;6.576;2022-11-11T09:11:18;26.30;;;11.93;;
23228;SDS011;11783;50.350;6.576;2022-11-11T09:13:45;27.95;;;13.30;;
23228;SDS011;11783;50.350;6.576;2022-11-11T09:16:11;22.20;;;11.77;;
23228;SDS011;11783;50.350;6.576;2022-11-11T09:18:37;29.02;;;12.98;;
23228;SDS011;11783;50.350;6.576;2022-11-11T09:21:02;22.00;;;11.35;;
23228;SDS011;11783;50.350;6.576;2022-11-11T09:23:28;25.35;;;11.35;;
23228;SDS011;11783;50.350;6.576;2022-11-11T09:25:54;18.50;;;9.95;;
23228;SDS011;11783;50.350;6.576;2022-11-11T09:28:19;17.77;;;9.38;;
23228;SDS011;11783;50.350;6.576;2022-11-11T09:30:44;20.50;;;10.50;;
23228;SDS011;11783;50.350;6.576;2022-11-11T09:33:10;18.02;;;9.38;;
23228;SDS011;11783;50.350;6.576;2022-11-11T09:35:36;21.13;;;10.95;;
23228;SDS011;11783;50.350;6.576;2022-11-11T09:38:02;19.40;;;10.27;;
23228;SDS011;11783;50.350;6.576;2022-11-11T09:43:27;12.00;;;6.70;;
23228;SDS011;11783;50.350;6.576;2022-11-11T09:48:42;13.18;;;6.45;;
23228;SDS011;11783;50.350;6.576;2022-11-11T09:51:31;9.90;;;6.18;;
23228;SDS011;11783;50.350;6.576;2022-11-11T09:54:08;12.65;;;6.93;;
23228;SDS011;11783;50.350;6.576;2022-11-11T09:56:40;12.95;;;6.32;;
23228;SDS011;11783;50.350;6.576;2022-11-11T09:59:08;12.15;;;6.18;;
23228;SDS011;11783;50.350;6.576;2022-11-11T10:01:51;8.55;;;4.32;;
23228;SDS011;11783;50.350;6.576;2022-11-11T10:04:41;9.70;;;4.30;;
23228;SDS011;11783;50.350;6.576;2022-11-11T10:07:24;6.95;;;3.45;;
23228;SDS011;11783;50.350;6.576;2022-11-11T10:10:19;9.75;;;3.70;;
23228;SDS011;11783;50.350;6.576;2022-11-11T10:12:49;8.25;;;3.70;;
23228;SDS011;11783;50.350;6.576;2022-11-11T10:15:21;7.88;;;3.25;;
23228;SDS011;11783;50.350;6.576;2022-11-11T10:20:47;9.07;;;3.65;;
23228;SDS011;11783;50.350;6.576;2022-11-11T10:23:19;8.60;;;4.40;;
23228;SDS011;11783;50.350;6.576;2022-11-11T10:25:53;8.82;;;3.90;;
23228;SDS011;11783;50.350;6.576;2022-11-11T10:28:21;9.50;;;3.23;;
23228;SDS011;11783;50.350;6.576;2022-11-11T10:30:52;10.85;;;4.60;;
23228;SDS011;11783;50.350;6.576;2022-11-11T10:33:20;7.75;;;3.50;;
23228;SDS011;11783;50.350;6.576;2022-11-11T10:35:56;7.55;;;3.75;;
23228;SDS011;11783;50.350;6.576;2022-11-11T10:41:37;6.65;;;2.67;;
23228;SDS011;11783;50.350;6.576;2022-11-11T10:44:21;8.00;;;2.80;;
23228;SDS011;11783;50.350;6.576;2022-11-11T10:49:32;6.72;;;2.75;;
23228;SDS011;11783;50.350;6.576;2022-11-11T10:54:40;5.75;;;2.28;;
23228;SDS011;11783;50.350;6.576;2022-11-11T10:57:16;6.38;;;2.22;;
23228;SDS011;11783;50.350;6.576;2022-11-11T11:00:05;5.35;;;1.50;;
23228;SDS011;11783;50.350;6.576;2022-11-11T11:02:39;5.80;;;1.85;;
23228;SDS011;11783;50.350;6.576;2022-11-11T11:07:57;7.70;;;2.33;;
23228;SDS011;11783;50.350;6.576;2022-11-11T11:10:34;4.22;;;1.80;;
23228;SDS011;11783;50.350;6.576;2022-11-11T11:13:11;4.80;;;1.60;;
23228;SDS011;11783;50.350;6.576;2022-11-11T11:15:42;4.20;;;1.60;;
23228;SDS011;11783;50.350;6.576;2022-11-11T11:18:13;4.63;;;1.67;;
23228;SDS011;11783;50.350;6.576;2022-11-11T11:21:01;4.68;;;1.65;;
23228;SDS011;11783;50.350;6.576;2022-11-11T11:28:26;3.97;;;1.60;;
23228;SDS011;11783;50.350;6.576;2022-11-11T11:31:02;5.38;;;1.40;;
23228;SDS011;11783;50.350;6.576;2022-11-11T11:33:51;4.50;;;1.33;;
23228;SDS011;11783;50.350;6.576;2022-11-11T11:36:20;4.40;;;1.48;;
23228;SDS011;11783;50.350;6.576;2022-11-11T11:38:46;5.93;;;1.50;;
23228;SDS011;11783;50.350;6.576;2022-11-11T11:41:15;3.58;;;1.52;;
23228;SDS011;11783;50.350;6.576;2022-11-11T11:43:42;3.33;;;1.30;;
23228;SDS011;11783;50.350;6.576;2022-11-11T11:51:47;3.47;;;1.40;;
23228;SDS011;11783;50.350;6.576;2022-11-11T11:57:07;4.47;;;1.25;;
23228;SDS011;11783;50.350;6.576;2022-11-11T11:59:50;5.05;;;1.40;;
23228;SDS011;11783;50.350;6.576;2022-11-11T12:10:14;4.80;;;1.40;;
23228;SDS011;11783;50.350;6.576;2022-11-11T12:12:55;5.35;;;1.50;;
23228;SDS011;11783;50.350;6.576;2022-11-11T12:22:15;4.55;;;1.30;;
23228;SDS011;11783;50.350;6.576;2022-11-11T12:24:26;3.33;;;1.08;;
23228;SDS011;11783;50.350;6.576;2022-11-11T12:29:36;3.95;;;1.48;;
23228;SDS011;11783;50.350;6.576;2022-11-11T12:35:41;4.68;;;1.80;;
23228;SDS011;11783;50.350;6.576;2022-11-11T12:43:49;2.20;;;1.10;;
23228;SDS011;11783;50.350;6.576;2022-11-11T12:56:48;3.65;;;1.10;;
23228;SDS011;11783;50.350;6.576;2022-11-11T12:59:44;3.13;;;1.10;;
23228;SDS011;11783;50.350;6.576;2022-11-11T13:05:41;2.90;;;0.90;;
23228;SDS011;11783;50.350;6.576;2022-11-11T13:08:34;2.85;;;1.10;;
23228;SDS011;11783;50.350;6.576;2022-11-11T13:11:25;3.83;;;0.90;;
23228;SDS011;11783;50.350;6.576;2022-11-11T13:24:56;3.38;;;1.20;;
23228;SDS011;11783;50.350;6.576;2022-11-11T13:32:44;4.47;;;1.33;;
23228;SDS011;11783;50.350;6.576;2022-11-11T13:37:50;3.03;;;0.95;;
23228;SDS011;11783;50.350;6.576;2022-11-11T13:40:31;4.25;;;0.90;;
23228;SDS011;11783;50.350;6.576;2022-11-11T13:43:01;3.55;;;1.25;;
23228;SDS011;11783;50.350;6.576;2022-11-11T13:45:29;2.10;;;1.10;;
23228;SDS011;11783;50.350;6.576;2022-11-11T13:47:59;4.38;;;0.98;;
23228;SDS011;11783;50.350;6.576;2022-11-11T13:50:26;3.70;;;1.00;;
23228;SDS011;11783;50.350;6.576;2022-11-11T13:53:05;2.57;;;0.90;;
23228;SDS011;11783;50.350;6.576;2022-11-11T13:55:39;3.17;;;1.20;;
23228;SDS011;11783;50.350;6.576;2022-11-11T14:00:47;2.95;;;1.00;;
23228;SDS011;11783;50.350;6.576;2022-11-11T14:11:27;3.40;;;1.30;;
23228;SDS011;11783;50.350;6.576;2022-11-11T14:14:44;5.18;;;2.20;;
23228;SDS011;11783;50.350;6.576;2022-11-11T14:17:03;6.82;;;2.50;;
23228;SDS011;11783;50.350;6.576;2022-11-11T14:19:30;6.05;;;2.30;;
23228;SDS011;11783;50.350;6.576;2022-11-11T14:21:58;6.13;;;2.38;;
23228;SDS011;11783;50.350;6.576;2022-11-11T14:24:35;6.75;;;2.22;;
23228;SDS011;11783;50.350;6.576;2022-11-11T14:27:02;4.47;;;1.48;;
23228;SDS011;11783;50.350;6.576;2022-11-11T14:29:50;6.03;;;2.10;;
23228;SDS011;11783;50.350;6.576;2022-11-11T14:35:28;3.28;;;1.30;;
23228;SDS011;11783;50.350;6.576;2022-11-11T14:40:44;4.30;;;1.70;;
23228;SDS011;11783;50.350;6.576;2022-11-11T14:46:01;4.53;;;1.38;;
23228;SDS011;11783;50.350;6.576;2022-11-11T14:54:20;3.28;;;1.20;;
23228;SDS011;11783;50.350;6.576;2022-11-11T14:56:57;5.78;;;1.98;;
23228;SDS011;11783;50.350;6.576;2022-11-11T14:59:26;5.40;;;1.88;;
23228;SDS011;11783;50.350;6.576;2022-11-11T15:01:54;5.85;;;2.13;;
23228;SDS011;11783;50.350;6.576;2022-11-11T15:04:21;9.07;;;2.30;;
23228;SDS011;11783;50.350;6.576;2022-11-11T15:06:49;7.50;;;4.40;;
23228;SDS011;11783;50.350;6.576;2022-11-11T15:15:44;5.03;;;2.25;;
23228;SDS011;11783;50.350;6.576;2022-11-11T15:21:21;7.18;;;2.15;;
23228;SDS011;11783;50.350;6.576;2022-11-11T15:38:20;10.35;;;2.70;;
23228;SDS011;11783;50.350;6.576;2022-11-11T15:40:46;5.93;;;2.15;;
23228;SDS011;11783;50.350;6.576;2022-11-11T15:43:14;6.63;;;2.50;;
23228;SDS011;11783;50.350;6.576;2022-11-11T15:48:42;6.53;;;2.40;;
23228;SDS011;11783;50.350;6.576;2022-11-11T15:53:50;7.90;;;2.80;;
23228;SDS011;11783;50.350;6.576;2022-11-11T15:56:33;7.38;;;2.80;;
23228;SDS011;11783;50.350;6.576;2022-11-11T15:59:15;8.63;;;3.33;;
23228;SDS011;11783;50.350;6.576;2022-11-11T16:01:40;9.98;;;3.70;;
23228;SDS011;11783;50.350;6.576;2022-11-11T16:04:19;6.43;;;3.47;;
23228;SDS011;11783;50.350;6.576;2022-11-11T16:06:47;8.80;;;4.00;;
23228;SDS011;11783;50.350;6.576;2022-11-11T16:09:13;7.55;;;3.80;;
23228;SDS011;11783;50.350;6.576;2022-11-11T16:11:42;6.72;;;3.20;;
23228;SDS011;11783;50.350;6.576;2022-11-11T16:14:09;7.03;;;3.10;;
23228;SDS011;11783;50.350;6.576;2022-11-11T16:16:45;7.38;;;2.45;;
23228;SDS011;11783;50.350;6.576;2022-11-11T16:19:24;6.30;;;2.03;;
23228;SDS011;11783;50.350;6.576;2022-11-11T16:24:31;5.95;;;1.55;;
23228;SDS011;11783;50.350;6.576;2022-11-11T16:27:00;5.55;;;1.63;;
23228;SDS011;11783;50.350;6.576;2022-11-11T16:29:29;7.07;;;2.30;;
23228;SDS011;11783;50.350;6.576;2022-11-11T16:32:00;6.40;;;2.58;;
23228;SDS011;11783;50.350;6.576;2022-11-11T16:39:25;7.88;;;2.55;;
23228;SDS011;11783;50.350;6.576;2022-11-11T16:41:51;5.63;;;2.58;;
23228;SDS011;11783;50.350;6.576;2022-11-11T16:47:05;8.18;;;2.58;;
23228;SDS011;11783;50.350;6.576;2022-11-11T16:49:37;6.13;;;2.80;;
23228;SDS011;11783;50.350;6.576;2022-11-11T16:52:06;5.22;;;2.80;;
23228;SDS011;11783;50.350;6.576;2022-11-11T16:54:38;5.38;;;2.40;;
23228;SDS011;11783;50.350;6.576;2022-11-11T16:57:24;5.95;;;2.90;;
23228;SDS011;11783;50.350;6.576;2022-11-11T16:59:54;9.70;;;3.15;;
23228;SDS011;11783;50.350;6.576;2022-11-11T17:02:25;7.35;;;3.15;;
23228;SDS011;11783;50.350;6.576;2022-11-11T17:04:51;8.30;;;3.60;;
23228;SDS011;11783;50.350;6.576;2022-11-11T17:07:52;10.38;;;4.00;;
23228;SDS011;11783;50.350;6.576;2022-11-11T17:10:12;11.02;;;4.40;;
23228;SDS011;11783;50.350;6.576;2022-11-11T17:12:40;7.13;;;3.55;;
23228;SDS011;11783;50.350;6.576;2022-11-11T17:15:06;9.13;;;4.05;;
23228;SDS011;11783;50.350;6.576;2022-11-11T17:17:34;6.95;;;3.92;;
23228;SDS011;11783;50.350;6.576;2022-11-11T17:20:02;8.60;;;3.80;;
23228;SDS011;11783;50.350;6.576;2022-11-11T17:22:30;7.82;;;3.42;;
23228;SDS011;11783;50.350;6.576;2022-11-11T17:24:55;8.30;;;4.05;;
23228;SDS011;11783;50.350;6.576;2022-11-11T17:27:21;9.30;;;3.78;;
23228;SDS011;11783;50.350;6.576;2022-11-11T17:29:46;14.40;;;3.60;;
23228;SDS011;11783;50.350;6.576;2022-11-11T17:32:12;7.80;;;4.40;;
23228;SDS011;11783;50.350;6.576;2022-11-11T17:34:37;9.20;;;5.95;;
23228;SDS011;11783;50.350;6.576;2022-11-11T17:37:03;9.20;;;5.40;;